This is the latest recevied weather packets stored in our database for station/object KO4LCK. If no packets are shown the sender has not sent any weather packets the latest 10 day(s).
| Time | Temp. | Humidity | Pressure | Rain* | Wind** | Luminosity | Snow |
|---|---|---|---|---|---|---|---|
| 1788652641 | 25.56° C | 89% | 1012.9 hPa | 0 mm | - | 4 W/m² | - |
| 1788652335 | 25.56° C | 89% | 1013 hPa | 0 mm | - | 6 W/m² | - |
| 1788652031 | 26.11° C | 88% | 1013 hPa | 0 mm | - | 9 W/m² | - |
| 1788651726 | 26.11° C | 88% | 1013.2 hPa | 0 mm | - | 13 W/m² | - |
| 1788651421 | 26.11° C | 88% | 1013 hPa | 0 mm | - | 16 W/m² | - |
| 1788651121 | 26.11° C | 86% | 1013.1 hPa | 0 mm | - | 20 W/m² | - |
| 1788650816 | 26.11° C | 87% | 1012.8 hPa | 0 mm | - | 25 W/m² | - |
| 1788650512 | 25.56° C | 88% | 1012.8 hPa | 0 mm | - | 27 W/m² | - |
| 1788650207 | 25.56° C | 89% | 1012.5 hPa | 0 mm | - | 31 W/m² | - |
| 1788649903 | 25.56° C | 90% | 1012.4 hPa | 0 mm | - | 39 W/m² | - |
| 1788649599 | 25.56° C | 91% | 1012.1 hPa | 0 mm | - | 50 W/m² | - |
| 1788649297 | 25.56° C | 91% | 1012.1 hPa | 0 mm | - | 56 W/m² | - |
| 1788648997 | 25.56° C | 89% | 1012 hPa | 0 mm | - | 62 W/m² | - |
| 1788648697 | 25.56° C | 90% | 1012.2 hPa | 0 mm | - | 58 W/m² | - |
| 1788648396 | 26.11° C | 87% | 1012.3 hPa | 0 mm | - | 49 W/m² | - |
| 1788648096 | 26.11° C | 83% | 1012.1 hPa | 0 mm | - | 41 W/m² | - |
| 1788647793 | 26.11° C | 81% | 1012.2 hPa | 0 mm | - | 38 W/m² | - |
| 1788647489 | 26.11° C | 82% | 1012.2 hPa | 0 mm | - | 40 W/m² | - |
| 1788647185 | 25.56° C | 83% | 1012.2 hPa | 1.78 mm | - | 43 W/m² | - |
| 1788646880 | 26.11° C | 81% | 1012.3 hPa | 1.78 mm | - | 50 W/m² | - |
| 1788646575 | 26.67° C | 80% | 1012.4 hPa | 0 mm | - | 61 W/m² | - |
| 1788646272 | 28.33° C | 75% | 1012.7 hPa | 0 mm | - | 63 W/m² | - |
| 1788645967 | 32.22° C | 62% | 1012.7 hPa | 0 mm | - | 54 W/m² | - |
| 1788645663 | 33.89° C | 53% | 1012.6 hPa | 0 mm | - | 41 W/m² | - |
| 1788645362 | 35.56° C | 48% | 1012.7 hPa | 0 mm | - | 37 W/m² | - |
* Rain latest hour (hover to see other rain measurements)
** Current wind speed in m/s (hover to see current wind gust speed)